createdAt,value
2022-11-17T00:04:16.719Z,1.41
2022-11-17T00:09:39.762Z,1.44
2022-11-17T00:15:03.470Z,1.47
2022-11-17T00:20:45.260Z,1.53
2022-11-17T00:26:07.797Z,1.55
2022-11-17T00:31:50.666Z,1.56
2022-11-17T00:37:15.265Z,1.55
2022-11-17T00:42:38.641Z,1.51
2022-11-17T00:48:01.823Z,1.49
2022-11-17T00:53:26.649Z,1.48
2022-11-17T00:58:49.387Z,1.50
2022-11-17T01:04:13.643Z,1.47
2022-11-17T01:09:37.881Z,1.44
2022-11-17T01:15:01.375Z,1.45
2022-11-17T01:20:24.965Z,1.39
2022-11-17T01:25:47.765Z,1.38
2022-11-17T01:31:15.943Z,1.37
2022-11-17T01:37:06.294Z,1.34
2022-11-17T01:42:32.668Z,1.24
2022-11-17T01:48:05.633Z,1.16
2022-11-17T01:53:32.982Z,1.14
2022-11-17T01:59:00.558Z,1.11
2022-11-17T02:04:22.857Z,1.02
2022-11-17T02:09:46.754Z,0.98
2022-11-17T02:15:10.168Z,0.96
2022-11-17T02:20:53.515Z,0.96
2022-11-17T02:27:12.381Z,0.99
2022-11-17T02:32:47.042Z,0.99
2022-11-17T02:38:20.873Z,0.95
2022-11-17T02:49:52.957Z,0.95
2022-11-17T02:55:21.072Z,0.91
2022-11-17T03:00:46.984Z,0.85
2022-11-17T03:06:33.410Z,0.77
2022-11-17T03:12:06.372Z,0.70
2022-11-17T03:17:42.105Z,0.68
2022-11-17T03:23:24.874Z,0.67
2022-11-17T03:28:50.548Z,0.66
2022-11-17T03:34:16.146Z,0.65
2022-11-17T03:39:48.861Z,0.65
2022-11-17T03:45:24.897Z,0.62
2022-11-17T03:51:03.199Z,0.54
2022-11-17T03:56:41.564Z,0.49
2022-11-17T04:02:04.629Z,0.42
2022-11-17T04:07:29.209Z,0.32
2022-11-17T04:13:11.359Z,0.23
2022-11-17T04:18:35.978Z,0.21
2022-11-17T04:23:58.967Z,0.15
2022-11-17T04:29:21.998Z,0.09
2022-11-17T04:34:46.710Z,0.06
2022-11-17T04:40:11.549Z,0.03
2022-11-17T04:45:34.397Z,-0.01
2022-11-17T04:51:02.510Z,-0.05
2022-11-17T04:56:27.943Z,-0.15
2022-11-17T05:01:51.555Z,-0.23
2022-11-17T05:07:14.575Z,-0.26
2022-11-17T05:12:54.573Z,-0.31
2022-11-17T05:18:19.282Z,-0.33
2022-11-17T05:23:55.267Z,-0.33
2022-11-17T05:29:21.628Z,-0.34
2022-11-17T05:34:45.584Z,-0.38
2022-11-17T05:40:10.018Z,-0.43
2022-11-17T05:45:33.017Z,-0.47
2022-11-17T05:50:57.970Z,-0.53
2022-11-17T05:56:51.473Z,-0.57
2022-11-17T06:02:24.718Z,-0.59
2022-11-17T06:07:49.879Z,-0.63
2022-11-17T06:13:12.051Z,-0.66
2022-11-17T06:18:39.092Z,-0.69
2022-11-17T06:24:03.233Z,-0.75
2022-11-17T06:29:28.019Z,-0.79
2022-11-17T06:34:55.684Z,-0.83
2022-11-17T06:40:17.441Z,-0.89
2022-11-17T06:45:42.559Z,-0.94
2022-11-17T06:51:08.580Z,-1.00
2022-11-17T06:56:30.753Z,-1.05
2022-11-17T07:01:53.809Z,-1.19
2022-11-17T07:07:18.824Z,-1.28
2022-11-17T07:12:42.751Z,-1.37
2022-11-17T07:18:06.714Z,-1.43
2022-11-17T07:23:29.588Z,-1.47
2022-11-17T07:28:52.796Z,-1.50
2022-11-17T07:34:15.736Z,-1.48
2022-11-17T07:39:40.350Z,-1.36
2022-11-17T07:45:02.616Z,-1.26
2022-11-17T07:50:25.464Z,-1.14
2022-11-17T07:55:48.529Z,-1.06
2022-11-17T08:01:17.407Z,-1.03
2022-11-17T08:06:39.776Z,-0.92
2022-11-17T08:12:02.531Z,-0.74
2022-11-17T08:17:24.747Z,-0.37
2022-11-17T08:22:47.125Z,-0.10
2022-11-17T08:28:11.183Z,0.21
2022-11-17T08:33:33.368Z,0.37
2022-11-17T08:38:55.570Z,0.53
2022-11-17T08:44:18.871Z,0.64
2022-11-17T08:49:41.154Z,0.62
2022-11-17T08:55:05.531Z,0.66
2022-11-17T09:00:29.026Z,0.91
2022-11-17T09:05:57.104Z,0.79
2022-11-17T09:11:22.591Z,0.88
2022-11-17T09:16:44.850Z,0.79
2022-11-17T09:22:07.546Z,0.89
2022-11-17T09:27:29.741Z,0.82
2022-11-17T09:32:53.717Z,0.86
2022-11-17T09:38:19.684Z,0.83
2022-11-17T09:44:05.526Z,0.90
2022-11-17T09:49:43.914Z,0.80
2022-11-17T09:55:11.318Z,0.76
2022-11-17T10:00:36.297Z,0.77
2022-11-17T10:05:58.632Z,0.77
2022-11-17T10:11:35.386Z,0.64
2022-11-17T10:17:01.905Z,0.65
2022-11-17T10:22:31.820Z,0.69
2022-11-17T10:27:59.326Z,0.68
2022-11-17T10:33:23.762Z,0.69
2022-11-17T10:38:55.417Z,0.79
2022-11-17T10:44:25.330Z,0.73
2022-11-17T10:49:50.118Z,0.75
2022-11-17T10:55:34.575Z,0.81
2022-11-17T11:01:01.458Z,0.83
2022-11-17T11:06:36.255Z,0.72
2022-11-17T11:12:04.340Z,0.76
2022-11-17T11:17:34.069Z,0.69
2022-11-17T11:22:53.338Z,0.71
2022-11-17T11:28:49.001Z,0.77
2022-11-17T11:34:54.803Z,0.76
2022-11-17T11:40:26.287Z,0.80
2022-11-17T11:46:14.229Z,0.60
2022-11-17T11:51:49.919Z,0.68
2022-11-17T11:57:14.839Z,0.68
2022-11-17T12:03:02.863Z,0.59
2022-11-17T12:14:16.751Z,0.54
2022-11-17T12:19:59.272Z,0.39
2022-11-17T12:31:11.400Z,0.47
2022-11-17T12:36:45.476Z,0.37
2022-11-17T12:42:19.565Z,0.28
2022-11-17T12:48:05.223Z,0.22
2022-11-17T12:53:32.285Z,0.18
2022-11-17T12:59:25.995Z,0.17
2022-11-17T13:05:01.603Z,0.23
2022-11-17T13:10:38.610Z,0.25
2022-11-17T13:16:04.516Z,0.10
2022-11-17T13:21:46.629Z,0.05
2022-11-17T13:27:12.959Z,-0.02
2022-11-17T13:32:38.031Z,-0.07
2022-11-17T13:38:12.805Z,-0.13
2022-11-17T13:43:39.628Z,-0.06
2022-11-17T13:49:03.816Z,-0.07
2022-11-17T13:54:33.734Z,-0.08
2022-11-17T13:59:52.177Z,-0.09
2022-11-17T14:05:28.646Z,-0.07
2022-11-17T14:10:52.962Z,-0.15
2022-11-17T14:16:33.626Z,-0.21
2022-11-17T14:22:24.728Z,-0.32
2022-11-17T14:27:53.191Z,-0.35
2022-11-17T14:33:14.033Z,-0.40
2022-11-17T14:38:39.052Z,-0.41
2022-11-17T14:44:01.325Z,-0.37
2022-11-17T14:49:23.729Z,-0.37
2022-11-17T14:54:45.904Z,-0.38
2022-11-17T15:00:08.878Z,-0.37
2022-11-17T15:05:31.550Z,-0.37
2022-11-17T15:10:57.477Z,-0.34
2022-11-17T15:16:21.223Z,-0.34
2022-11-17T15:21:43.479Z,-0.41
2022-11-17T15:27:05.706Z,-0.43
2022-11-17T15:32:27.902Z,-0.47
2022-11-17T15:37:50.283Z,-0.68
2022-11-17T15:43:12.661Z,-0.97
2022-11-17T15:48:37.651Z,-1.20
2022-11-17T15:54:05.432Z,-1.40
2022-11-17T15:59:29.578Z,-1.61
2022-11-17T16:04:51.794Z,-1.86
2022-11-17T16:10:14.066Z,-2.07
2022-11-17T16:15:36.260Z,-2.21
2022-11-17T16:21:04.019Z,-2.39
2022-11-17T16:26:24.076Z,-2.68
2022-11-17T16:31:49.036Z,-2.87
2022-11-17T16:37:11.437Z,-3.21
2022-11-17T16:42:33.804Z,-3.28
2022-11-17T16:47:56.027Z,-3.36
2022-11-17T16:53:18.287Z,-3.52
2022-11-17T16:58:40.488Z,-3.62
2022-11-17T17:04:03.409Z,-3.74
2022-11-17T17:09:28.109Z,-3.84
2022-11-17T17:14:50.536Z,-3.59
2022-11-17T17:20:13.342Z,-3.30
2022-11-17T17:25:35.539Z,-3.10
2022-11-17T17:31:02.877Z,-3.01
2022-11-17T17:36:29.229Z,-2.91
2022-11-17T17:41:55.242Z,-2.82
2022-11-17T17:47:18.892Z,-2.76
2022-11-17T17:52:43.251Z,-2.67
2022-11-17T17:58:08.850Z,-2.62
2022-11-17T18:03:32.632Z,-2.52
2022-11-17T18:08:57.604Z,-2.51
2022-11-17T18:14:25.055Z,-2.52
2022-11-17T18:19:49.280Z,-2.48
2022-11-17T18:25:17.786Z,-2.43
2022-11-17T18:30:40.251Z,-2.33
2022-11-17T18:36:05.343Z,-2.21
2022-11-17T18:41:31.089Z,-2.14
2022-11-17T18:46:58.236Z,-2.09
2022-11-17T18:52:18.892Z,-2.08
2022-11-17T18:57:44.995Z,-2.09
2022-11-17T19:03:09.670Z,-2.14
2022-11-17T19:08:34.516Z,-2.16
2022-11-17T19:13:59.114Z,-2.10
2022-11-17T19:19:22.026Z,-2.10
2022-11-17T19:24:45.706Z,-2.00
2022-11-17T19:30:08.739Z,-1.92
2022-11-17T19:35:33.104Z,-1.92
2022-11-17T19:40:56.202Z,-1.98
2022-11-17T19:46:22.218Z,-2.10
2022-11-17T19:51:49.443Z,-2.20
2022-11-17T19:57:11.663Z,-2.18
2022-11-17T20:02:33.854Z,-2.09
2022-11-17T20:07:56.068Z,-2.29
2022-11-17T20:13:18.281Z,-2.44
2022-11-17T20:18:41.914Z,-2.55
2022-11-17T20:24:04.967Z,-2.62
2022-11-17T20:29:27.804Z,-2.72
2022-11-17T20:34:50.101Z,-2.96
2022-11-17T20:40:13.161Z,-3.23
2022-11-17T20:45:35.677Z,-3.28
2022-11-17T20:51:04.463Z,-3.20
2022-11-17T20:56:29.647Z,-3.31
2022-11-17T21:01:52.336Z,-3.46
2022-11-17T21:07:14.541Z,-3.59
2022-11-17T21:12:36.790Z,-3.81
2022-11-17T21:18:17.962Z,-3.93
2022-11-17T21:23:44.180Z,-4.06
2022-11-17T21:29:07.303Z,-4.13
2022-11-17T21:34:34.506Z,-4.17
2022-11-17T21:39:58.254Z,-4.17
2022-11-17T21:45:21.951Z,-4.08
2022-11-17T21:50:44.131Z,-4.00
2022-11-17T21:56:07.081Z,-4.05
2022-11-17T22:01:32.493Z,-4.04
2022-11-17T22:06:58.944Z,-4.05
2022-11-17T22:12:24.453Z,-3.96
2022-11-17T22:17:49.669Z,-4.02
2022-11-17T22:23:12.457Z,-4.09
2022-11-17T22:28:34.727Z,-4.06
2022-11-17T22:33:59.592Z,-4.10
2022-11-17T22:39:22.676Z,-4.16
2022-11-17T22:44:44.863Z,-4.17
2022-11-17T22:50:07.128Z,-4.16
2022-11-17T22:55:29.316Z,-4.21
2022-11-17T23:00:53.378Z,-4.17
2022-11-17T23:06:19.225Z,-4.20
2022-11-17T23:11:43.939Z,-4.22
2022-11-17T23:17:08.664Z,-4.22
2022-11-17T23:22:31.315Z,-4.27
2022-11-17T23:27:55.833Z,-4.26
2022-11-17T23:33:20.349Z,-4.27
2022-11-17T23:38:43.534Z,-4.26
2022-11-17T23:44:09.800Z,-4.28
2022-11-17T23:49:35.002Z,-4.23
2022-11-17T23:54:59.214Z,-4.24
